createdAt,value
2022-10-14T00:00:44.961Z,8.93
2022-10-14T00:03:15.043Z,8.37
2022-10-14T00:05:46.562Z,8.37
2022-10-14T00:08:16.513Z,8.77
2022-10-14T00:10:46.787Z,9.60
2022-10-14T00:13:21.988Z,8.20
2022-10-14T00:15:50.465Z,9.23
2022-10-14T00:18:22.322Z,9.93
2022-10-14T00:20:56.292Z,9.87
2022-10-14T00:23:28.489Z,9.50
2022-10-14T00:25:56.539Z,10.20
2022-10-14T00:28:26.716Z,10.90
2022-10-14T00:30:57.230Z,10.37
2022-10-14T00:33:26.915Z,10.47
2022-10-14T00:35:57.039Z,10.47
2022-10-14T00:38:26.579Z,10.63
2022-10-14T00:40:58.259Z,10.37
2022-10-14T00:43:29.194Z,11.27
2022-10-14T00:45:57.396Z,10.63
2022-10-14T00:48:27.307Z,10.67
2022-10-14T00:50:58.463Z,11.03
2022-10-14T00:53:26.780Z,10.33
2022-10-14T00:55:57.231Z,10.80
2022-10-14T00:58:25.334Z,10.53
2022-10-14T01:00:56.938Z,11.93
2022-10-14T01:03:25.487Z,10.63
2022-10-14T01:06:04.108Z,11.07
2022-10-14T01:08:39.248Z,10.93
2022-10-14T01:11:25.534Z,9.50
2022-10-14T01:14:10.719Z,10.60
2022-10-14T01:16:55.346Z,10.60
2022-10-14T01:19:48.118Z,10.63
2022-10-14T01:22:26.063Z,11.47
2022-10-14T01:25:16.395Z,10.30
2022-10-14T01:28:06.683Z,11.00
2022-10-14T01:30:45.559Z,12.03
2022-10-14T01:33:19.915Z,12.70
2022-10-14T01:36:05.899Z,12.60
2022-10-14T01:38:38.990Z,12.10
2022-10-14T01:41:15.378Z,12.67
2022-10-14T01:43:48.763Z,12.77
2022-10-14T01:46:22.958Z,12.10
2022-10-14T01:49:05.534Z,12.90
2022-10-14T01:51:44.111Z,12.47
2022-10-14T01:54:17.437Z,12.83
2022-10-14T01:56:48.363Z,12.37
2022-10-14T01:59:26.847Z,12.10
2022-10-14T02:01:56.710Z,13.27
2022-10-14T02:04:34.680Z,12.73
2022-10-14T02:07:15.721Z,13.13
2022-10-14T02:09:58.647Z,12.33
2022-10-14T02:12:38.799Z,12.87
2022-10-14T02:15:25.562Z,12.97
2022-10-14T02:18:07.257Z,13.23
2022-10-14T02:20:46.689Z,14.10
2022-10-14T02:23:27.297Z,13.70
2022-10-14T02:25:57.960Z,13.77
2022-10-14T02:28:35.117Z,14.27
2022-10-14T02:31:16.157Z,13.77
2022-10-14T02:33:55.559Z,13.00
2022-10-14T02:36:28.072Z,14.70
2022-10-14T02:39:08.032Z,14.40
2022-10-14T02:41:39.218Z,14.00
2022-10-14T02:44:07.814Z,14.13
2022-10-14T02:46:36.933Z,13.67
2022-10-14T02:49:07.867Z,13.37
2022-10-14T02:51:37.690Z,13.93
2022-10-14T02:54:07.208Z,13.87
2022-10-14T02:56:37.398Z,13.27
2022-10-14T02:59:08.974Z,13.57
2022-10-14T03:01:37.922Z,13.53
2022-10-14T03:04:08.510Z,14.03
2022-10-14T03:06:37.457Z,14.10
2022-10-14T03:09:08.246Z,12.33
2022-10-14T03:11:36.159Z,13.70
2022-10-14T03:14:07.046Z,14.27
2022-10-14T03:16:37.599Z,15.30
2022-10-14T03:19:08.571Z,13.50
2022-10-14T03:21:37.225Z,13.93
2022-10-14T03:24:07.683Z,13.70
2022-10-14T03:26:47.065Z,13.60
2022-10-14T03:29:17.152Z,14.03
2022-10-14T03:31:47.161Z,14.47
2022-10-14T03:34:23.212Z,13.73
2022-10-14T03:36:58.396Z,14.10
2022-10-14T03:39:27.146Z,14.47
2022-10-14T03:41:58.574Z,14.73
2022-10-14T03:44:26.769Z,14.30
2022-10-14T03:46:56.931Z,14.67
2022-10-14T03:49:28.430Z,14.67
2022-10-14T03:51:57.651Z,14.93
2022-10-14T03:54:27.217Z,14.60
2022-10-14T03:56:57.305Z,12.70
2022-10-14T03:59:27.339Z,14.33
2022-10-14T04:01:58.250Z,13.70
2022-10-14T04:04:27.542Z,15.47
2022-10-14T04:06:57.724Z,13.67
2022-10-14T04:09:29.248Z,12.93
2022-10-14T04:12:01.376Z,12.90
2022-10-14T04:14:29.163Z,13.07
2022-10-14T04:16:57.244Z,13.03
2022-10-14T04:19:28.716Z,13.93
2022-10-14T04:21:59.383Z,12.47
2022-10-14T04:24:33.116Z,12.47
2022-10-14T04:27:04.450Z,12.00
2022-10-14T04:29:39.117Z,12.47
2022-10-14T04:32:07.689Z,11.00
2022-10-14T04:34:39.445Z,11.60
2022-10-14T04:37:07.858Z,11.03
2022-10-14T04:39:36.350Z,11.80
2022-10-14T04:42:07.912Z,10.60
2022-10-14T04:44:37.795Z,10.43
2022-10-14T04:47:07.597Z,10.47
2022-10-14T04:49:36.448Z,9.87
2022-10-14T04:52:08.027Z,9.07
2022-10-14T04:54:35.650Z,9.10
2022-10-14T04:57:14.919Z,9.17
2022-10-14T04:59:46.978Z,8.33
2022-10-14T05:02:18.455Z,8.10
2022-10-14T05:04:47.185Z,7.73
2022-10-14T05:07:17.488Z,7.13
2022-10-14T05:09:49.759Z,7.13
2022-10-14T05:12:29.215Z,7.10
2022-10-14T05:14:57.197Z,7.07
2022-10-14T05:17:26.983Z,6.53
2022-10-14T05:19:57.375Z,6.77
2022-10-14T05:22:29.412Z,6.50
2022-10-14T05:24:57.445Z,6.30
2022-10-14T05:27:26.835Z,6.47
2022-10-14T05:29:57.382Z,6.50
2022-10-14T05:32:36.799Z,6.80
2022-10-14T05:35:07.406Z,5.93
2022-10-14T05:37:39.367Z,6.00
2022-10-14T05:40:08.746Z,6.60
2022-10-14T05:42:37.435Z,6.43
2022-10-14T05:45:07.105Z,6.90
2022-10-14T05:47:37.936Z,7.40
2022-10-14T05:50:08.392Z,6.20
2022-10-14T05:52:43.255Z,6.87
2022-10-14T05:55:28.523Z,6.73
2022-10-14T05:57:57.738Z,7.30
2022-10-14T06:00:27.110Z,7.40
2022-10-14T06:02:58.735Z,8.23
2022-10-14T06:05:29.234Z,8.50
2022-10-14T06:07:58.524Z,8.80
2022-10-14T06:10:28.973Z,8.83
2022-10-14T06:13:07.391Z,9.53
2022-10-14T06:15:45.165Z,10.20
2022-10-14T06:18:19.014Z,9.73
2022-10-14T06:20:57.565Z,10.67
2022-10-14T06:23:29.548Z,9.80
2022-10-14T06:26:02.465Z,9.83
2022-10-14T06:28:36.509Z,9.83
2022-10-14T06:31:07.117Z,11.33
2022-10-14T06:33:37.638Z,9.50
2022-10-14T06:36:08.440Z,9.63
2022-10-14T06:38:39.035Z,9.23
2022-10-14T06:41:07.970Z,9.17
2022-10-14T06:43:39.661Z,9.77
2022-10-14T06:46:08.677Z,8.97
2022-10-14T06:48:39.165Z,9.40
2022-10-14T06:51:07.142Z,9.20
2022-10-14T06:53:34.878Z,9.03
2022-10-14T06:56:08.166Z,9.13
2022-10-14T06:58:37.699Z,8.83
2022-10-14T07:01:09.559Z,8.87
2022-10-14T07:03:39.245Z,9.43
2022-10-14T07:06:09.218Z,9.03
2022-10-14T07:08:38.154Z,9.03
2022-10-14T07:11:17.876Z,9.37
2022-10-14T07:13:47.502Z,8.67
2022-10-14T07:16:17.066Z,8.67
2022-10-14T07:18:48.054Z,8.90
2022-10-14T07:21:19.498Z,8.50
2022-10-14T07:23:47.729Z,8.97
2022-10-14T07:26:27.856Z,9.23
2022-10-14T07:28:58.713Z,8.90
2022-10-14T07:31:27.598Z,8.53
2022-10-14T07:33:57.759Z,9.67
2022-10-14T07:36:28.118Z,9.17
2022-10-14T07:38:57.970Z,9.40
2022-10-14T07:41:37.599Z,10.13
2022-10-14T07:44:10.321Z,9.07
2022-10-14T07:46:47.682Z,9.07
2022-10-14T07:49:19.975Z,9.17
2022-10-14T07:51:48.841Z,10.00
2022-10-14T07:54:29.045Z,8.40
2022-10-14T07:56:59.867Z,9.23
2022-10-14T07:59:28.073Z,8.10
2022-10-14T08:01:58.234Z,7.10
2022-10-14T08:04:27.795Z,8.27
2022-10-14T08:06:58.597Z,7.20
2022-10-14T08:12:04.895Z,6.70
2022-10-14T08:14:36.179Z,6.20
2022-10-14T08:17:07.865Z,5.70
2022-10-14T08:19:46.252Z,5.93
2022-10-14T08:22:17.154Z,6.20
2022-10-14T08:24:50.028Z,5.17
2022-10-14T08:27:19.333Z,6.07
2022-10-14T08:29:47.823Z,5.03
2022-10-14T08:32:18.653Z,4.67
2022-10-14T08:34:49.218Z,4.17
2022-10-14T08:37:19.638Z,4.17
2022-10-14T08:39:47.819Z,4.07
2022-10-14T08:42:46.369Z,4.10
2022-10-14T08:45:27.477Z,4.20
2022-10-14T08:48:07.832Z,4.30
2022-10-14T08:50:49.806Z,4.60
2022-10-14T08:53:28.308Z,4.17
2022-10-14T08:56:05.575Z,4.90
2022-10-14T08:58:46.639Z,5.20
2022-10-14T09:01:27.670Z,4.97
2022-10-14T09:03:59.710Z,4.10
2022-10-14T09:06:45.494Z,5.03
2022-10-14T09:09:27.309Z,4.37
2022-10-14T09:11:59.825Z,4.03
2022-10-14T09:14:37.774Z,3.80
2022-10-14T09:17:25.548Z,4.37
2022-10-14T09:20:17.641Z,4.13
2022-10-14T09:23:10.561Z,4.00
2022-10-14T09:25:45.558Z,3.87
2022-10-14T09:28:16.790Z,4.73
2022-10-14T09:30:48.607Z,4.43
2022-10-14T09:33:24.841Z,4.70
2022-10-14T09:36:18.326Z,4.23
2022-10-14T09:38:55.614Z,4.50
2022-10-14T09:41:29.895Z,4.83
2022-10-14T09:47:19.170Z,4.37
2022-10-14T09:49:49.402Z,4.47
2022-10-14T09:52:27.871Z,4.73
2022-10-14T09:54:57.588Z,4.40
2022-10-14T09:57:28.704Z,4.50
2022-10-14T10:00:03.046Z,4.73
2022-10-14T10:02:46.853Z,4.70
2022-10-14T10:05:30.259Z,4.57
2022-10-14T10:08:18.549Z,4.40
2022-10-14T10:11:06.903Z,4.43
2022-10-14T10:13:46.194Z,4.37
2022-10-14T10:16:34.495Z,4.37
2022-10-14T10:19:28.925Z,4.60
2022-10-14T10:22:26.936Z,4.53
2022-10-14T10:25:20.118Z,4.00
2022-10-14T10:27:49.580Z,4.53
2022-10-14T10:30:37.328Z,4.90
2022-10-14T10:33:26.719Z,4.93
2022-10-14T10:38:59.356Z,4.47
2022-10-14T10:42:00.035Z,4.70
2022-10-14T10:44:58.841Z,5.77
2022-10-14T10:47:38.910Z,5.70
2022-10-14T10:50:28.799Z,5.83
2022-10-14T10:53:38.219Z,5.77
2022-10-14T10:56:16.847Z,5.40
2022-10-14T10:59:03.891Z,5.80
2022-10-14T11:01:52.530Z,5.47
2022-10-14T11:04:35.729Z,5.90
2022-10-14T11:07:35.936Z,5.57
2022-10-14T11:10:47.252Z,5.13
2022-10-14T11:13:29.442Z,4.63
2022-10-14T11:16:07.776Z,4.30
2022-10-14T11:18:48.271Z,4.33
2022-10-14T11:21:28.880Z,3.40
2022-10-14T11:24:18.185Z,3.30
2022-10-14T11:27:08.719Z,3.33
2022-10-14T11:30:09.749Z,3.30
2022-10-14T11:32:48.584Z,3.00
2022-10-14T11:35:28.773Z,2.93
2022-10-14T11:38:18.142Z,3.30
2022-10-14T11:40:57.203Z,3.33
2022-10-14T11:43:39.948Z,3.10
2022-10-14T11:46:16.179Z,3.30
2022-10-14T11:48:56.922Z,3.20
2022-10-14T11:51:40.583Z,3.50
2022-10-14T11:54:17.025Z,3.40
2022-10-14T11:56:56.781Z,3.43
2022-10-14T11:59:46.413Z,3.27
2022-10-14T12:02:28.664Z,3.80
2022-10-14T12:05:08.282Z,3.67
2022-10-14T12:07:43.688Z,3.30
2022-10-14T12:10:28.202Z,3.37
2022-10-14T12:12:58.367Z,3.20
2022-10-14T12:18:08.279Z,2.70
2022-10-14T12:20:47.666Z,2.47
2022-10-14T12:23:28.205Z,2.63
2022-10-14T12:26:08.205Z,2.63
2022-10-14T12:28:39.129Z,2.40
2022-10-14T12:31:39.967Z,2.53
2022-10-14T12:34:38.949Z,2.23
2022-10-14T12:37:45.109Z,2.37
2022-10-14T12:40:37.376Z,2.37
2022-10-14T12:43:29.699Z,1.97
2022-10-14T12:46:17.319Z,1.50
2022-10-14T12:48:57.078Z,1.33
2022-10-14T12:51:29.727Z,1.60
2022-10-14T12:54:17.068Z,1.47
2022-10-14T12:56:56.482Z,1.40
2022-10-14T12:59:30.540Z,1.30
2022-10-14T13:02:04.941Z,1.33
2022-10-14T13:04:49.346Z,0.90
2022-10-14T13:07:41.216Z,1.17
2022-10-14T13:10:47.687Z,1.33
2022-10-14T13:13:57.529Z,1.20
2022-10-14T13:17:00.333Z,1.20
2022-10-14T13:19:47.522Z,1.40
2022-10-14T13:22:39.279Z,1.30
2022-10-14T13:25:18.181Z,1.30
2022-10-14T13:28:10.073Z,1.30
2022-10-14T13:31:06.246Z,1.03
2022-10-14T13:33:47.895Z,1.10
2022-10-14T13:36:30.193Z,1.03
2022-10-14T13:39:08.699Z,0.90
2022-10-14T13:41:39.024Z,1.00
2022-10-14T13:44:14.822Z,0.73
2022-10-14T13:46:49.892Z,0.90
2022-10-14T13:49:22.497Z,1.10
2022-10-14T13:51:58.377Z,0.80
2022-10-14T13:54:31.286Z,0.93
2022-10-14T13:57:42.669Z,0.90
2022-10-14T14:02:53.861Z,0.73
2022-10-14T14:08:41.129Z,0.87
2022-10-14T14:11:16.808Z,0.80
2022-10-14T14:14:07.401Z,0.90
2022-10-14T14:16:40.068Z,0.90
2022-10-14T14:19:20.168Z,0.80
2022-10-14T14:21:49.271Z,0.73
2022-10-14T14:24:29.941Z,0.70
2022-10-14T14:26:59.990Z,0.87
2022-10-14T14:29:35.815Z,0.80
2022-10-14T14:32:17.495Z,0.87
2022-10-14T14:34:51.281Z,0.80
2022-10-14T14:37:55.214Z,0.90
2022-10-14T14:40:20.953Z,1.07
2022-10-14T14:42:57.440Z,0.90
2022-10-14T14:45:35.486Z,0.93
2022-10-14T14:48:11.130Z,0.90
2022-10-14T14:50:48.886Z,0.90
2022-10-14T14:53:24.818Z,0.87
2022-10-14T14:56:20.039Z,1.00
2022-10-14T14:58:58.231Z,0.87
2022-10-14T15:01:30.531Z,1.00
2022-10-14T15:04:13.556Z,0.77
2022-10-14T15:06:51.123Z,0.80
2022-10-14T15:09:38.339Z,0.70
2022-10-14T15:12:30.771Z,0.90
2022-10-14T15:15:01.515Z,0.87
2022-10-14T15:17:36.790Z,1.00
2022-10-14T15:20:30.303Z,0.73
2022-10-14T15:22:58.966Z,1.00
2022-10-14T15:25:31.180Z,1.10
2022-10-14T15:28:06.581Z,1.30
2022-10-14T15:31:03.156Z,1.30
2022-10-14T15:33:39.468Z,1.30
2022-10-14T15:36:17.772Z,1.37
2022-10-14T15:38:50.009Z,0.97
2022-10-14T15:41:19.207Z,0.90
2022-10-14T15:43:50.824Z,1.10
2022-10-14T15:46:37.473Z,0.80
2022-10-14T15:49:18.700Z,0.87
2022-10-14T15:51:49.233Z,1.00
2022-10-14T15:54:19.081Z,1.10
2022-10-14T15:56:49.359Z,0.90
2022-10-14T15:59:20.838Z,1.40
2022-10-14T16:01:49.495Z,1.23
2022-10-14T16:04:23.254Z,1.10
2022-10-14T16:06:56.687Z,1.17
2022-10-14T16:09:29.078Z,1.00
2022-10-14T16:11:59.095Z,1.00
2022-10-14T16:14:30.854Z,3.63
2022-10-14T16:17:07.008Z,1.87
2022-10-14T16:19:47.631Z,1.33
2022-10-14T16:22:18.973Z,1.07
2022-10-14T16:24:48.955Z,1.10
2022-10-14T16:27:18.794Z,1.20
2022-10-14T16:29:50.273Z,0.90
2022-10-14T16:32:19.265Z,1.50
2022-10-14T16:34:49.453Z,1.20
2022-10-14T16:37:21.590Z,1.40
2022-10-14T16:39:50.056Z,1.03
2022-10-14T16:42:20.963Z,1.20
2022-10-14T16:44:51.156Z,0.97
2022-10-14T16:47:19.627Z,1.40
2022-10-14T16:49:53.001Z,1.30
2022-10-14T16:52:21.321Z,1.40
2022-10-14T16:54:50.911Z,1.50
2022-10-14T16:57:19.579Z,1.30
2022-10-14T16:59:49.320Z,1.47
2022-10-14T17:02:21.404Z,1.60
2022-10-14T17:04:51.827Z,1.70
2022-10-14T17:07:20.645Z,2.07
2022-10-14T17:09:48.514Z,1.90
2022-10-14T17:12:18.944Z,1.80
2022-10-14T17:14:49.370Z,2.23
2022-10-14T17:17:24.814Z,2.43
2022-10-14T17:19:57.795Z,2.27
2022-10-14T17:22:36.807Z,2.50
2022-10-14T17:25:09.852Z,2.27
2022-10-14T17:27:39.601Z,2.47
2022-10-14T17:30:10.263Z,2.30
2022-10-14T17:32:40.549Z,2.23
2022-10-14T17:35:12.831Z,2.50
2022-10-14T17:37:47.755Z,2.67
2022-10-14T17:40:18.701Z,3.00
2022-10-14T17:42:58.250Z,2.90
2022-10-14T17:45:33.438Z,3.00
2022-10-14T17:48:07.016Z,3.07
2022-10-14T17:50:40.761Z,3.33
2022-10-14T17:53:19.072Z,3.50
2022-10-14T17:55:54.016Z,3.20
2022-10-14T17:58:29.681Z,3.73
2022-10-14T18:01:09.069Z,4.00
2022-10-14T18:03:47.038Z,4.10
2022-10-14T18:06:28.266Z,4.50
2022-10-14T18:09:01.076Z,4.50
2022-10-14T18:11:56.591Z,4.03
2022-10-14T18:14:29.426Z,4.10
2022-10-14T18:16:59.334Z,4.80
2022-10-14T18:19:33.280Z,4.20
2022-10-14T18:22:02.731Z,4.53
2022-10-14T18:24:30.886Z,5.67
2022-10-14T18:26:59.451Z,5.83
2022-10-14T18:29:28.167Z,7.00
2022-10-14T18:31:59.472Z,5.77
2022-10-14T18:34:31.370Z,6.07
2022-10-14T18:36:59.453Z,5.50
2022-10-14T18:39:27.320Z,6.10
2022-10-14T18:41:58.046Z,5.70
2022-10-14T18:44:30.050Z,5.70
2022-10-14T18:46:59.329Z,5.77
2022-10-14T18:49:31.069Z,5.73
2022-10-14T18:51:59.719Z,5.90
2022-10-14T18:54:31.515Z,6.63
2022-10-14T18:57:00.602Z,6.93
2022-10-14T18:59:30.058Z,5.93
2022-10-14T19:01:59.400Z,6.60
2022-10-14T19:04:31.467Z,6.33
2022-10-14T19:06:59.484Z,6.77
2022-10-14T19:09:30.237Z,5.80
2022-10-14T19:12:21.154Z,6.17
2022-10-14T19:14:49.659Z,6.20
2022-10-14T19:17:20.326Z,6.23
2022-10-14T19:19:50.999Z,5.97
2022-10-14T19:22:20.013Z,5.57
2022-10-14T19:24:49.386Z,5.73
2022-10-14T19:27:19.096Z,5.97
2022-10-14T19:29:51.318Z,5.87
2022-10-14T19:32:19.727Z,5.27
2022-10-14T19:34:59.732Z,4.90
2022-10-14T19:37:29.643Z,5.10
2022-10-14T19:40:01.396Z,4.37
2022-10-14T19:42:29.186Z,4.30
2022-10-14T19:45:01.014Z,4.53
2022-10-14T19:47:29.734Z,4.73
2022-10-14T19:50:01.888Z,4.20
2022-10-14T19:52:33.669Z,4.30
2022-10-14T19:55:09.811Z,4.30
2022-10-14T19:57:39.474Z,3.93
2022-10-14T20:00:15.828Z,4.43
2022-10-14T20:02:49.743Z,4.17
2022-10-14T20:05:21.441Z,4.00
2022-10-14T20:07:49.782Z,4.47
2022-10-14T20:10:19.616Z,3.73
2022-10-14T20:12:50.117Z,4.00
2022-10-14T20:15:19.832Z,3.70
2022-10-14T20:17:50.506Z,3.40
2022-10-14T20:20:23.385Z,3.27
2022-10-14T20:22:51.160Z,3.57
2022-10-14T20:25:19.773Z,4.10
2022-10-14T20:27:50.612Z,3.90
2022-10-14T20:30:19.066Z,3.67
2022-10-14T20:32:49.785Z,3.60
2022-10-14T20:35:22.393Z,3.80
2022-10-14T20:37:51.195Z,3.80
2022-10-14T20:40:21.902Z,4.17
2022-10-14T20:42:49.766Z,3.80
2022-10-14T20:45:19.587Z,4.90
2022-10-14T20:47:53.459Z,4.67
2022-10-14T20:50:27.957Z,4.00
2022-10-14T20:52:59.565Z,3.77
2022-10-14T20:55:41.688Z,4.20
2022-10-14T20:58:10.003Z,5.07
2022-10-14T21:00:49.798Z,4.37
2022-10-14T21:03:20.336Z,4.43
2022-10-14T21:05:51.242Z,4.83
2022-10-14T21:08:19.972Z,5.23
2022-10-14T21:10:50.351Z,5.73
2022-10-14T21:13:20.922Z,5.33
2022-10-14T21:15:48.579Z,5.60
2022-10-14T21:18:20.086Z,5.40
2022-10-14T21:20:47.761Z,6.33
2022-10-14T21:23:19.891Z,6.33
2022-10-14T21:25:59.969Z,6.03
2022-10-14T21:28:30.159Z,7.13
2022-10-14T21:31:00.680Z,7.23
2022-10-14T21:33:30.250Z,6.33
2022-10-14T21:36:11.257Z,5.97
2022-10-14T21:38:41.126Z,6.87
2022-10-14T21:41:14.090Z,6.77
2022-10-14T21:43:43.907Z,7.03
2022-10-14T21:46:18.552Z,7.53
2022-10-14T21:48:48.738Z,6.30
2022-10-14T21:51:20.072Z,7.20
2022-10-14T21:53:49.925Z,7.00
2022-10-14T21:56:20.313Z,6.57
2022-10-14T21:58:51.152Z,7.07
2022-10-14T22:01:21.745Z,7.70
2022-10-14T22:03:58.818Z,7.20
2022-10-14T22:06:31.864Z,7.60
2022-10-14T22:09:03.369Z,7.60
2022-10-14T22:11:34.240Z,8.60
2022-10-14T22:14:09.744Z,8.53
2022-10-14T22:16:40.254Z,8.53
2022-10-14T22:19:19.894Z,7.97
2022-10-14T22:21:50.526Z,8.50
2022-10-14T22:24:20.121Z,7.83
2022-10-14T22:26:51.418Z,7.93
2022-10-14T22:29:19.999Z,8.47
2022-10-14T22:31:52.354Z,7.77
2022-10-14T22:34:22.841Z,7.27
2022-10-14T22:36:50.734Z,8.13
2022-10-14T22:39:21.126Z,8.37
2022-10-14T22:41:50.381Z,8.40
2022-10-14T22:44:30.424Z,8.67
2022-10-14T22:47:01.106Z,7.20
2022-10-14T22:49:30.737Z,7.50
2022-10-14T22:52:00.189Z,7.83
2022-10-14T22:54:32.269Z,7.60
2022-10-14T22:57:00.156Z,7.53
2022-10-14T22:59:28.433Z,7.30
2022-10-14T23:01:58.803Z,8.10
2022-10-14T23:04:39.171Z,8.03
2022-10-14T23:07:10.402Z,7.87
2022-10-14T23:09:42.206Z,8.20
2022-10-14T23:12:10.287Z,8.87
2022-10-14T23:14:40.971Z,8.63
2022-10-14T23:17:10.268Z,8.47
2022-10-14T23:19:39.927Z,9.03
2022-10-14T23:22:10.785Z,7.87
2022-10-14T23:24:51.501Z,8.47
2022-10-14T23:27:22.364Z,9.07
2022-10-14T23:29:50.241Z,8.47
2022-10-14T23:32:20.187Z,8.97
2022-10-14T23:34:52.457Z,8.23
2022-10-14T23:37:20.483Z,9.10
2022-10-14T23:39:59.826Z,9.50
2022-10-14T23:42:30.590Z,8.20
2022-10-14T23:45:00.119Z,8.80
2022-10-14T23:47:28.244Z,8.83
2022-10-14T23:50:00.129Z,8.37
2022-10-14T23:52:30.055Z,7.80
2022-10-14T23:55:01.869Z,8.87
2022-10-14T23:57:31.210Z,9.60
